Time;durP1;ratioP1;P1;durP2;ratioP2;P2;SDS_P1;SDS_P2;PMS_P1;PMS_P2;Temp;Humidity;BMP_temperature;BMP_pressure;BME280_temperature;BME280_humidity;BME280_pressure;Samples;Min_cycle;Max_cycle;Signal;HPM_P1;HPM_P2
2021/01/28 12:55:14;;;;;;;1.63;0.60;;;10.10;99.90;;;;;;5161857;27;20347;-75
2021/01/28 12:57:40;;;;;;;1.13;0.50;;;10.20;99.90;;;;;;5138146;27;20375;-78
2021/01/28 13:00:08;;;;;;;1.92;0.70;;;11.00;99.90;;;;;;5154977;27;20084;-77
2021/01/28 13:02:34;;;;;;;1.70;0.60;;;10.10;99.90;;;;;;5148835;27;20023;-77
2021/01/28 13:04:59;;;;;;;1.30;0.60;;;11.90;99.90;;;;;;5132792;27;20061;-77
2021/01/28 13:07:25;;;;;;;2.00;0.80;;;10.20;99.90;;;;;;5115952;27;20058;-78
2021/01/28 13:09:51;;;;;;;1.10;0.77;;;10.00;99.90;;;;;;5136934;27;20023;-78
2021/01/28 13:12:17;;;;;;;2.50;0.65;;;10.40;99.90;;;;;;5091198;27;20119;-77
2021/01/28 13:14:42;;;;;;;2.13;0.70;;;10.60;99.90;;;;;;5135333;27;20035;-78
2021/01/28 13:17:10;;;;;;;2.50;0.70;;;11.00;99.90;;;;;;5127719;27;20019;-78
2021/01/28 13:19:36;;;;;;;2.63;0.73;;;10.70;99.90;;;;;;5116298;27;20043;-78
2021/01/28 13:22:02;;;;;;;2.55;0.70;;;10.30;99.90;;;;;;5138436;27;20023;-76
2021/01/28 13:24:27;;;;;;;0.93;0.50;;;10.40;99.90;;;;;;5140168;27;20027;-76
2021/01/28 13:26:53;;;;;;;2.58;0.57;;;10.80;99.90;;;;;;5144884;27;20031;-78
2021/01/28 13:29:19;;;;;;;1.73;0.85;;;11.00;99.90;;;;;;5129145;27;20058;-78
2021/01/28 13:31:44;;;;;;;0.70;0.50;;;10.80;99.90;;;;;;5136743;27;20036;-78
2021/01/28 13:34:10;;;;;;;1.20;0.60;;;10.70;99.90;;;;;;5134234;27;20074;-78
2021/01/28 13:36:36;;;;;;;1.50;0.65;;;10.80;99.90;;;;;;5115582;27;20040;-78
2021/01/28 13:39:02;;;;;;;2.85;0.60;;;10.60;99.90;;;;;;5116360;27;20037;-78
2021/01/28 13:41:27;;;;;;;1.45;0.70;;;10.60;99.90;;;;;;5116761;27;20079;-78
2021/01/28 13:43:53;;;;;;;0.73;0.50;;;10.50;99.90;;;;;;5133212;27;20059;-78
2021/01/28 13:46:19;;;;;;;1.65;0.70;;;10.60;99.90;;;;;;5122117;27;20030;-78
2021/01/28 13:48:44;;;;;;;2.15;0.55;;;10.90;99.90;;;;;;5134521;27;20037;-77
2021/01/28 13:51:10;;;;;;;2.95;0.60;;;10.80;99.90;;;;;;5121961;27;20023;-77
2021/01/28 13:53:35;;;;;;;0.80;0.50;;;10.70;99.90;;;;;;5098291;27;20027;-78
2021/01/28 13:56:01;;;;;;;0.73;0.40;;;11.80;99.90;;;;;;5136784;27;20080;-77
2021/01/28 13:58:27;;;;;;;2.80;0.60;;;10.90;99.90;;;;;;5141378;27;20023;-78
2021/01/28 14:00:52;;;;;;;0.55;0.30;;;10.90;99.90;;;;;;5120630;27;20035;-77
2021/01/28 14:03:18;;;;;;;0.60;0.50;;;11.10;99.90;;;;;;5146842;27;20035;-77
2021/01/28 14:05:44;;;;;;;1.20;0.50;;;10.90;99.90;;;;;;5110660;27;20046;-78
2021/01/28 14:08:10;;;;;;;0.35;0.30;;;11.00;99.90;;;;;;5137379;27;20032;-78
2021/01/28 14:10:35;;;;;;;1.25;0.50;;;11.10;99.90;;;;;;5094374;27;20031;-78
2021/01/28 14:13:01;;;;;;;1.10;0.40;;;11.10;99.90;;;;;;5124268;27;20032;-78
2021/01/28 14:15:29;;;;;;;0.60;0.50;;;11.30;99.90;;;;;;5128167;27;20023;-77
2021/01/28 14:17:54;;;;;;;1.15;0.40;;;11.40;99.90;;;;;;5099665;27;20110;-78
2021/01/28 14:20:21;;;;;;;0.82;0.43;;;11.30;99.90;;;;;;5126567;27;20429;-78
2021/01/28 14:22:48;;;;;;;0.30;0.30;;;11.20;99.90;;;;;;5106198;28;20289;-77
2021/01/28 14:25:17;;;;;;;2.40;0.50;;;11.30;99.90;;;;;;5105057;27;20491;-78
2021/01/28 14:27:43;;;;;;;0.50;0.45;;;11.20;99.90;;;;;;5120704;27;20362;-78
2021/01/28 14:30:10;;;;;;;0.90;0.50;;;11.50;99.90;;;;;;5127595;27;20110;-78
2021/01/28 14:32:36;;;;;;;1.20;0.40;;;11.30;99.90;;;;;;5126205;27;20034;-78
2021/01/28 14:35:04;;;;;;;0.75;0.38;;;11.30;99.90;;;;;;5105599;27;20023;-78
2021/01/28 14:37:29;;;;;;;0.40;0.30;;;11.50;99.90;;;;;;5127808;27;20425;-78
2021/01/28 14:39:55;;;;;;;0.47;0.38;;;11.50;99.90;;;;;;5107432;28;20052;-78
2021/01/28 14:42:22;;;;;;;0.40;0.20;;;12.20;99.90;;;;;;5109887;27;20027;-78
2021/01/28 14:44:48;;;;;;;0.57;0.30;;;11.90;99.90;;;;;;5131220;27;20016;-78
2021/01/28 14:47:14;;;;;;;1.60;0.40;;;11.90;99.90;;;;;;5110499;27;20046;-77
2021/01/28 14:49:40;;;;;;;1.10;0.40;;;11.90;99.90;;;;;;5121948;27;20023;-76
2021/01/28 14:52:06;;;;;;;1.42;0.20;;;12.00;99.90;;;;;;5125966;27;20038;-78
2021/01/28 14:54:32;;;;;;;0.20;0.20;;;11.80;99.90;;;;;;5109526;27;20033;-78
2021/01/28 14:56:58;;;;;;;0.10;0.10;;;12.10;99.90;;;;;;5126648;27;20483;-78
2021/01/28 14:59:23;;;;;;;0.52;0.20;;;11.80;99.90;;;;;;5089394;27;20023;-78
2021/01/28 15:01:49;;;;;;;1.15;0.38;;;12.00;99.90;;;;;;5133967;27;20437;-76
2021/01/28 15:04:14;;;;;;;0.30;0.10;;;12.00;99.90;;;;;;5126437;27;20027;-77
2021/01/28 15:06:40;;;;;;;0.40;0.15;;;12.00;99.90;;;;;;5129588;27;20033;-77
2021/01/28 15:09:06;;;;;;;0.68;0.20;;;12.00;99.90;;;;;;5137033;27;20039;-78
2021/01/28 15:11:32;;;;;;;0.47;0.20;;;12.40;99.90;;;;;;5103969;27;20035;-76
2021/01/28 15:13:58;;;;;;;0.60;0.40;;;12.10;99.90;;;;;;5124366;27;20058;-77
2021/01/28 15:16:24;;;;;;;1.75;0.50;;;12.40;99.90;;;;;;5101894;28;20051;-77
2021/01/28 15:18:50;;;;;;;0.60;0.40;;;12.20;99.90;;;;;;5112377;27;20099;-77
2021/01/28 15:21:17;;;;;;;0.55;0.25;;;12.30;99.90;;;;;;5107404;27;20024;-76
2021/01/28 15:23:43;;;;;;;0.20;0.13;;;12.30;99.90;;;;;;5116098;27;20027;-77
2021/01/28 15:26:09;;;;;;;0.57;0.13;;;12.40;99.90;;;;;;5121786;27;20034;-76
2021/01/28 15:28:36;;;;;;;0.30;0.10;;;12.50;99.90;;;;;;5120190;27;20539;-77
2021/01/28 15:31:03;;;;;;;0.40;0.28;;;12.40;99.90;;;;;;5129301;27;20065;-77
2021/01/28 15:33:28;;;;;;;1.75;0.30;;;12.70;99.90;;;;;;5112089;27;20020;-77
2021/01/28 15:35:54;;;;;;;0.60;0.30;;;12.30;99.90;;;;;;5120071;27;20035;-78
2021/01/28 15:38:20;;;;;;;0.32;0.17;;;12.70;99.90;;;;;;5124343;27;20124;-77
2021/01/28 15:40:47;;;;;;;0.77;0.20;;;12.70;99.90;;;;;;5118906;27;20522;-78
2021/01/28 15:43:13;;;;;;;0.50;0.20;;;12.40;99.90;;;;;;5123817;27;20510;-78
2021/01/28 15:45:39;;;;;;;0.98;0.22;;;13.30;99.90;;;;;;5127811;27;20031;-78
2021/01/28 15:48:05;;;;;;;0.45;0.30;;;12.70;99.90;;;;;;5128057;27;20106;-79
2021/01/28 15:50:31;;;;;;;0.22;0.20;;;12.50;99.90;;;;;;5128081;27;20031;-79
2021/01/28 15:52:57;;;;;;;0.52;0.22;;;13.40;99.90;;;;;;5123922;27;20042;-78
2021/01/28 15:55:23;;;;;;;0.80;0.20;;;12.50;99.90;;;;;;5130797;27;20572;-79
2021/01/28 15:57:49;;;;;;;2.47;0.20;;;12.80;99.90;;;;;;5122544;27;20121;-79
2021/01/28 16:00:15;;;;;;;0.85;0.28;;;12.70;99.90;;;;;;5103534;27;20422;-76
2021/01/28 16:02:41;;;;;;;0.17;0.10;;;12.60;99.90;;;;;;5097203;27;20062;-77
2021/01/28 16:05:07;;;;;;;0.32;0.13;;;12.60;99.90;;;;;;5122753;27;20812;-77
2021/01/28 16:07:33;;;;;;;1.00;0.20;;;12.60;99.90;;;;;;5117129;27;20031;-77
2021/01/28 16:09:58;;;;;;;0.85;0.30;;;12.80;99.90;;;;;;5119562;27;20038;-77
2021/01/28 16:12:24;;;;;;;0.40;0.13;;;13.20;99.90;;;;;;5123386;27;20040;-77
2021/01/28 16:14:50;;;;;;;0.52;0.20;;;12.60;99.90;;;;;;5113767;27;20031;-76
2021/01/28 16:17:16;;;;;;;1.10;0.28;;;12.80;99.90;;;;;;5104500;27;20031;-76
2021/01/28 16:19:41;;;;;;;0.73;0.20;;;12.60;99.90;;;;;;5124200;27;20026;-76
2021/01/28 16:22:07;;;;;;;0.90;0.13;;;12.50;99.90;;;;;;5096341;28;20036;-76
2021/01/28 16:24:33;;;;;;;0.52;0.13;;;12.90;99.90;;;;;;5073031;28;20032;-76
2021/01/28 16:26:59;;;;;;;0.95;0.30;;;12.60;99.90;;;;;;5091598;28;20107;-76
2021/01/28 16:29:24;;;;;;;0.30;0.20;;;12.70;99.90;;;;;;5099012;28;20039;-76
2021/01/28 16:31:50;;;;;;;0.40;0.30;;;12.50;99.90;;;;;;5112232;28;20484;-76
2021/01/28 16:34:16;;;;;;;0.35;0.15;;;12.70;99.90;;;;;;5109686;28;20032;-76
2021/01/28 16:36:41;;;;;;;0.45;0.20;;;13.00;99.90;;;;;;5108419;28;20042;-76
2021/01/28 16:39:08;;;;;;;0.40;0.17;;;12.50;99.90;;;;;;5104974;27;20159;-76
2021/01/28 16:41:39;;;;;;;2.58;0.40;;;12.60;99.90;;;;;;5106335;28;20019;-76
2021/01/28 16:44:05;;;;;;;1.83;0.30;;;12.40;99.90;;;;;;5107389;28;20024;-76
2021/01/28 16:46:31;;;;;;;0.65;0.40;;;12.50;99.90;;;;;;5108623;28;20038;-77
2021/01/28 16:48:57;;;;;;;0.40;0.20;;;12.30;99.90;;;;;;5106916;28;20020;-76
2021/01/28 16:51:23;;;;;;;0.60;0.20;;;12.60;99.90;;;;;;5090122;28;20024;-77
2021/01/28 16:53:48;;;;;;;0.80;0.45;;;12.70;99.90;;;;;;5107223;28;20081;-77
2021/01/28 16:56:15;;;;;;;0.20;0.10;;;12.70;99.90;;;;;;5107735;28;20055;-77
2021/01/28 16:58:40;;;;;;;1.80;0.30;;;12.50;99.90;;;;;;5108669;28;20024;-77
2021/01/28 17:01:06;;;;;;;1.50;0.40;;;12.40;99.90;;;;;;5107950;28;20049;-79
2021/01/28 17:03:31;;;;;;;0.40;0.30;;;12.40;99.90;;;;;;5088389;28;20039;-78
2021/01/28 17:05:57;;;;;;;0.35;0.20;;;12.20;99.90;;;;;;5108400;28;20024;-76
2021/01/28 17:08:23;;;;;;;0.32;0.25;;;12.60;99.90;;;;;;5107789;28;20031;-78
2021/01/28 17:10:48;;;;;;;1.35;0.20;;;12.40;99.90;;;;;;5089573;28;20027;-78
2021/01/28 17:13:14;;;;;;;2.38;0.35;;;12.70;99.90;;;;;;5108119;28;20036;-77
2021/01/28 17:15:39;;;;;;;1.02;0.40;;;13.40;99.90;;;;;;5120543;22;20023;-80
2021/01/28 17:18:05;;;;;;;0.63;0.20;;;12.50;99.90;;;;;;5050781;28;20060;-80
2021/01/28 17:20:33;;;;;;;0.68;0.20;;;13.10;99.90;;;;;;5052871;28;20033;-80
2021/01/28 17:22:59;;;;;;;1.73;0.35;;;12.70;99.90;;;;;;5064684;28;20023;-79
2021/01/28 17:25:25;;;;;;;1.02;0.30;;;12.50;99.90;;;;;;5054711;28;20032;-80
2021/01/28 17:27:51;;;;;;;0.57;0.20;;;12.80;99.90;;;;;;5092150;28;20036;-79
2021/01/28 17:30:21;;;;;;;0.43;0.30;;;12.50;99.90;;;;;;5092772;28;20115;-79
2021/01/28 17:32:47;;;;;;;0.57;0.52;;;12.50;99.90;;;;;;5072084;28;20082;-78
2021/01/28 17:35:13;;;;;;;1.17;0.40;;;12.40;99.90;;;;;;5077834;28;20454;-79
2021/01/28 17:37:39;;;;;;;2.28;0.35;;;12.50;99.90;;;;;;5074873;28;20024;-79
2021/01/28 17:40:07;;;;;;;1.90;0.43;;;13.20;99.90;;;;;;5078250;28;20025;-79
2021/01/28 17:42:33;;;;;;;1.58;0.38;;;12.40;99.90;;;;;;5077134;28;20032;-79
2021/01/28 17:44:59;;;;;;;2.25;0.70;;;12.50;99.90;;;;;;5079708;28;20079;-79
2021/01/28 17:47:24;;;;;;;0.60;0.30;;;13.40;99.90;;;;;;5098710;28;20031;-79
2021/01/28 17:49:50;;;;;;;1.50;0.32;;;12.50;99.90;;;;;;5095988;28;20028;-78
2021/01/28 17:52:16;;;;;;;0.82;0.40;;;12.60;99.90;;;;;;5091550;28;20036;-78
2021/01/28 17:54:42;;;;;;;0.88;0.30;;;12.00;99.90;;;;;;5064381;28;20035;-78
2021/01/28 17:57:11;;;;;;;4.25;0.70;;;13.00;99.90;;;;;;5081877;28;20435;-78
2021/01/28 17:59:38;;;;;;;2.15;0.60;;;12.40;99.90;;;;;;5082474;28;20439;-78
2021/01/28 18:02:05;;;;;;;0.95;0.25;;;12.40;99.90;;;;;;5079547;28;20028;-78
2021/01/28 18:04:31;;;;;;;1.02;0.50;;;12.40;99.90;;;;;;5084296;28;20020;-78
2021/01/28 18:06:57;;;;;;;0.45;0.20;;;12.60;99.90;;;;;;5084363;28;20016;-78
2021/01/28 18:09:22;;;;;;;1.50;0.60;;;12.30;99.90;;;;;;5081785;28;20024;-78
2021/01/28 18:11:50;;;;;;;1.00;0.20;;;13.00;99.90;;;;;;5083912;28;20488;-78
2021/01/28 18:14:16;;;;;;;1.85;0.35;;;12.30;99.90;;;;;;5085047;28;20668;-79
2021/01/28 18:16:42;;;;;;;1.73;0.47;;;12.20;99.90;;;;;;5084206;28;20056;-78
2021/01/28 18:19:08;;;;;;;0.40;0.28;;;12.50;99.90;;;;;;5088163;28;20395;-79
2021/01/28 18:21:34;;;;;;;2.90;0.50;;;12.30;99.90;;;;;;5088781;28;20085;-80
2021/01/28 18:24:00;;;;;;;0.82;0.30;;;12.70;99.90;;;;;;5085019;28;20031;-79
2021/01/28 18:26:28;;;;;;;1.10;0.30;;;12.20;99.90;;;;;;5095464;28;20052;-79
2021/01/28 18:28:54;;;;;;;2.25;0.47;;;12.50;99.90;;;;;;5087389;28;20559;-79
2021/01/28 18:31:21;;;;;;;1.15;0.60;;;12.30;99.90;;;;;;5085924;28;20029;-78
2021/01/28 18:33:46;;;;;;;2.90;0.50;;;12.50;99.90;;;;;;5088361;28;20021;-79
2021/01/28 18:36:12;;;;;;;0.90;0.40;;;13.30;99.90;;;;;;5089530;28;20054;-79
2021/01/28 18:38:37;;;;;;;0.82;0.50;;;12.10;99.90;;;;;;5087444;28;20024;-78
2021/01/28 18:41:04;;;;;;;3.45;0.60;;;12.00;99.90;;;;;;5092447;28;20032;-78
2021/01/28 18:43:30;;;;;;;1.60;0.50;;;12.00;99.90;;;;;;5093401;28;20020;-78
2021/01/28 18:45:56;;;;;;;2.15;0.63;;;12.00;99.90;;;;;;5093903;28;20035;-79
2021/01/28 18:48:22;;;;;;;1.70;0.70;;;11.60;99.90;;;;;;5093311;28;20031;-78
2021/01/28 18:50:48;;;;;;;4.47;0.90;;;11.60;99.90;;;;;;5096632;28;20119;-82
